Time;durP1;ratioP1;P1;durP2;ratioP2;P2;SDS_P1;SDS_P2;PMS_P1;PMS_P2;Temp;Humidity;BMP_temperature;BMP_pressure;BME280_temperature;BME280_humidity;BME280_pressure;Samples;Min_cycle;Max_cycle;Signal;HPM_P1;HPM_P2
2024/02/19 00:01:17;;;;;;;0.40;0.30;;;;;;;9.82;100.00;100640.66;5204760;28;20021;-76
2024/02/19 00:03:47;;;;;;;0.30;0.30;;;;;;;9.79;100.00;100640.75;5204874;28;20037;-76
2024/02/19 00:06:17;;;;;;;0.22;0.20;;;;;;;9.78;100.00;100633.78;5204322;28;20064;-76
2024/02/19 00:08:48;;;;;;;0.22;0.20;;;;;;;9.88;100.00;100649.16;5205462;28;20497;-77
2024/02/19 00:11:18;;;;;;;0.63;0.15;;;;;;;9.84;100.00;100657.94;5205467;28;20090;-77
2024/02/19 00:13:49;;;;;;;0.40;0.20;;;;;;;9.84;100.00;100663.16;5195647;28;20123;-77
2024/02/19 00:16:19;;;;;;;1.60;0.63;;;;;;;9.84;100.00;100667.56;5203065;28;20058;-77
2024/02/19 00:18:49;;;;;;;1.10;0.57;;;;;;;9.78;100.00;100675.56;5202020;28;20021;-76
2024/02/19 00:21:20;;;;;;;1.10;0.80;;;;;;;9.77;100.00;100673.84;5193298;28;20522;-76
2024/02/19 00:23:51;;;;;;;0.75;0.70;;;;;;;9.67;100.00;100686.31;5207036;28;20112;-77
2024/02/19 00:26:21;;;;;;;1.10;0.77;;;;;;;9.72;100.00;100688.78;5193357;28;20515;-76
2024/02/19 00:28:52;;;;;;;0.98;0.70;;;;;;;9.65;100.00;100695.13;5195635;28;20029;-76
2024/02/19 00:31:22;;;;;;;1.20;0.82;;;;;;;9.59;100.00;100700.50;5203272;28;20540;-77
2024/02/19 00:33:53;;;;;;;1.60;1.00;;;;;;;9.53;100.00;100711.13;5205555;28;20032;-76
2024/02/19 00:36:23;;;;;;;1.35;0.90;;;;;;;9.48;100.00;100705.19;5206746;28;20228;-77
2024/02/19 00:38:54;;;;;;;2.65;1.20;;;;;;;9.50;100.00;100716.44;5204525;28;20532;-76
2024/02/19 00:41:24;;;;;;;2.50;1.30;;;;;;;9.55;100.00;100724.97;5201257;28;20514;-77
2024/02/19 00:43:55;;;;;;;1.75;1.27;;;;;;;9.45;100.00;100724.38;5196424;28;20025;-76
2024/02/19 00:46:25;;;;;;;2.45;1.52;;;;;;;9.49;100.00;100735.59;5193385;28;20021;-76
2024/02/19 00:48:56;;;;;;;2.30;1.70;;;;;;;9.53;100.00;100737.22;5207348;28;20086;-76
2024/02/19 00:51:26;;;;;;;2.60;1.70;;;;;;;9.54;100.00;100739.78;5205940;28;20558;-76
2024/02/19 00:53:56;;;;;;;2.70;1.90;;;;;;;9.50;100.00;100747.75;5205814;28;20036;-77
2024/02/19 00:56:26;;;;;;;3.38;2.40;;;;;;;9.49;100.00;100748.63;5202508;28;20065;-76
2024/02/19 00:58:57;;;;;;;3.40;2.45;;;;;;;9.48;100.00;100757.38;5205865;28;20497;-76
2024/02/19 01:01:27;;;;;;;3.65;2.50;;;;;;;9.42;100.00;100760.13;5195300;28;20032;-77
2024/02/19 01:03:58;;;;;;;5.25;2.78;;;;;;;9.37;100.00;100762.00;5206678;28;20028;-77
2024/02/19 01:06:28;;;;;;;3.88;2.63;;;;;;;9.37;100.00;100769.84;5195602;28;20120;-76
2024/02/19 01:08:58;;;;;;;4.78;2.53;;;;;;;9.35;100.00;100769.88;5213780;28;20155;-77
2024/02/19 01:11:30;;;;;;;3.38;2.40;;;;;;;9.33;100.00;100774.28;5208696;28;20116;-76
2024/02/19 01:14:00;;;;;;;4.07;2.40;;;;;;;9.26;100.00;100774.47;5185505;28;20214;-76
2024/02/19 01:16:32;;;;;;;3.85;2.58;;;;;;;9.14;100.00;100780.88;5207898;28;20047;-76
2024/02/19 01:19:05;;;;;;;3.47;2.35;;;;;;;9.07;100.00;100786.31;5197790;28;20487;-76
2024/02/19 01:21:36;;;;;;;4.57;2.22;;;;;;;9.04;100.00;100789.00;5198098;28;20120;-76
2024/02/19 01:24:07;;;;;;;3.55;1.65;;;;;;;9.04;100.00;100789.00;5207696;28;20140;-77
2024/02/19 01:26:38;;;;;;;2.53;1.75;;;;;;;9.07;100.00;100790.69;5212865;28;20090;-76
2024/02/19 01:29:08;;;;;;;2.15;1.77;;;;;;;9.04;100.00;100799.41;5198707;28;20033;-76
2024/02/19 01:31:38;;;;;;;2.65;1.77;;;;;;;9.03;100.00;100802.91;5208655;28;20033;-76
2024/02/19 01:34:09;;;;;;;2.72;1.88;;;;;;;9.06;100.00;100802.00;5203181;28;20059;-76
2024/02/19 01:36:39;;;;;;;3.60;1.98;;;;;;;9.02;100.00;100806.44;5203735;28;20148;-76
2024/02/19 01:39:10;;;;;;;3.13;2.13;;;;;;;9.07;100.00;100806.31;5205385;28;20505;-76
2024/02/19 01:41:40;;;;;;;4.78;2.70;;;;;;;9.06;100.00;100809.81;5203722;28;20041;-76
2024/02/19 01:44:11;;;;;;;5.32;2.88;;;;;;;9.02;100.00;100819.47;5206815;28;20119;-76
2024/02/19 01:46:42;;;;;;;3.80;2.72;;;;;;;9.01;100.00;100809.94;5207609;28;20111;-77
2024/02/19 01:49:13;;;;;;;3.85;2.78;;;;;;;8.88;100.00;100815.50;5204635;28;20025;-77
2024/02/19 01:51:44;;;;;;;3.67;2.60;;;;;;;9.04;100.00;100830.69;5201223;28;20079;-76
2024/02/19 01:54:14;;;;;;;2.97;1.92;;;;;;;8.99;100.00;100832.56;5196205;28;20027;-77
2024/02/19 01:56:45;;;;;;;3.97;1.85;;;;;;;8.99;100.00;100831.72;5201215;28;20095;-76
2024/02/19 01:59:17;;;;;;;2.25;1.50;;;;;;;8.96;100.00;100835.25;5205228;28;20116;-76
2024/02/19 02:01:48;;;;;;;2.13;1.40;;;;;;;8.91;100.00;100834.50;5192173;28;20025;-76
2024/02/19 02:04:19;;;;;;;2.28;1.27;;;;;;;8.92;100.00;100838.81;5208287;28;20037;-76
2024/02/19 02:06:49;;;;;;;1.73;1.20;;;;;;;8.87;100.00;100848.50;5202341;28;20028;-76
2024/02/19 02:09:19;;;;;;;1.67;0.93;;;;;;;8.90;100.00;100840.59;5192571;28;20505;-77
2024/02/19 02:11:50;;;;;;;1.40;0.95;;;;;;;8.88;100.00;100845.00;5203969;28;20517;-77
2024/02/19 02:14:20;;;;;;;2.15;1.10;;;;;;;8.95;100.00;100841.38;5204471;28;20124;-76
2024/02/19 02:16:50;;;;;;;1.50;1.00;;;;;;;8.96;100.00;100839.59;5199967;28;20104;-76
2024/02/19 02:19:21;;;;;;;1.20;1.00;;;;;;;9.02;100.00;100836.84;5207842;28;20123;-76
2024/02/19 02:21:51;;;;;;;1.50;1.00;;;;;;;9.05;100.00;100847.22;5193976;28;20021;-77
2024/02/19 02:24:22;;;;;;;3.22;1.30;;;;;;;9.01;100.00;100845.56;5203434;28;20383;-77
2024/02/19 02:26:52;;;;;;;1.95;1.25;;;;;;;8.97;100.00;100841.31;5202867;28;20021;-76
2024/02/19 02:29:23;;;;;;;3.67;1.10;;;;;;;9.06;100.00;100856.75;5202145;28;20558;-76
2024/02/19 02:31:54;;;;;;;1.85;1.30;;;;;;;9.04;100.00;100848.94;5200349;28;20029;-77
2024/02/19 02:34:24;;;;;;;1.85;1.20;;;;;;;8.94;100.00;100855.31;5207141;28;20037;-77
2024/02/19 02:36:56;;;;;;;2.88;1.40;;;;;;;8.95;100.00;100846.59;5203670;28;20048;-76
2024/02/19 02:39:26;;;;;;;3.78;1.50;;;;;;;8.89;100.00;100851.94;5192933;28;20029;-76
2024/02/19 02:41:56;;;;;;;2.15;1.30;;;;;;;8.84;100.00;100853.81;5206418;28;20059;-76
2024/02/19 02:44:27;;;;;;;2.55;1.10;;;;;;;8.90;100.00;100853.63;5203119;28;20033;-76
2024/02/19 02:46:57;;;;;;;2.55;1.10;;;;;;;8.85;100.00;100868.53;5205903;28;20391;-76
2024/02/19 02:49:28;;;;;;;1.98;0.93;;;;;;;8.89;100.00;100862.34;5195644;28;20030;-74
2024/02/19 02:51:58;;;;;;;2.90;0.70;;;;;;;8.87;100.00;100861.53;5198354;28;20395;-76
2024/02/19 02:54:28;;;;;;;2.28;0.55;;;;;;;8.75;100.00;100869.63;5203015;28;20502;-76
2024/02/19 02:56:59;;;;;;;2.55;0.30;;;;;;;8.70;100.00;100865.44;5204275;28;20040;-76
2024/02/19 02:59:30;;;;;;;0.52;0.20;;;;;;;8.80;100.00;100883.44;5204679;28;20031;-76
2024/02/19 03:02:00;;;;;;;1.13;0.50;;;;;;;8.74;100.00;100888.78;5202234;28;20033;-77
2024/02/19 03:04:31;;;;;;;0.90;0.40;;;;;;;8.71;100.00;100899.28;5202482;28;20033;-76
2024/02/19 03:07:02;;;;;;;0.50;0.47;;;;;;;8.77;100.00;100904.38;5206691;28;20226;-76
2024/02/19 03:09:32;;;;;;;0.82;0.30;;;;;;;8.77;100.00;100909.56;5203791;28;20021;-77
2024/02/19 03:12:03;;;;;;;0.40;0.40;;;;;;;8.71;100.00;100914.91;5207657;28;20324;-77
2024/02/19 03:14:34;;;;;;;1.60;0.50;;;;;;;8.61;100.00;100917.75;5195368;28;20031;-76
2024/02/19 03:17:04;;;;;;;0.20;0.20;;;;;;;8.47;100.00;100931.09;5205651;28;20071;-76
2024/02/19 03:19:35;;;;;;;0.40;0.20;;;;;;;8.53;100.00;100946.56;5204056;28;20068;-76
2024/02/19 03:22:05;;;;;;;1.65;0.10;;;;;;;8.55;100.00;100950.00;5203644;28;20033;-76
2024/02/19 03:24:36;;;;;;;3.42;0.10;;;;;;;8.50;100.00;100951.84;5193836;28;20130;-76
2024/02/19 03:27:06;;;;;;;1.13;0.20;;;;;;;8.43;100.00;100958.09;5202946;28;20029;-76
2024/02/19 03:29:36;;;;;;;0.40;0.10;;;;;;;8.41;100.00;100946.81;5206527;28;20025;-77
2024/02/19 03:32:07;;;;;;;0.10;0.10;;;;;;;8.37;100.00;100954.75;5205463;28;20021;-76
2024/02/19 03:34:37;;;;;;;0.20;0.20;;;;;;;8.33;100.00;100956.56;5206267;28;20028;-76
2024/02/19 03:37:08;;;;;;;0.65;0.22;;;;;;;8.28;100.00;100965.34;5203653;28;20108;-76
2024/02/19 03:39:39;;;;;;;0.50;0.22;;;;;;;8.26;100.00;100952.38;5207343;28;20032;-76
2024/02/19 03:42:09;;;;;;;0.28;0.28;;;;;;;8.24;100.00;100954.13;5194750;28;20106;-76
2024/02/19 03:44:39;;;;;;;1.10;0.20;;;;;;;8.27;100.00;100971.44;5203365;28;20420;-76
2024/02/19 03:47:10;;;;;;;0.20;0.20;;;;;;;8.27;100.00;100972.31;5203984;28;20490;-76
2024/02/19 03:49:40;;;;;;;0.45;0.30;;;;;;;8.19;100.00;100970.75;5205068;28;20028;-76
2024/02/19 03:52:10;;;;;;;2.40;0.40;;;;;;;8.21;100.00;100979.38;5203276;28;20478;-76
2024/02/19 03:54:41;;;;;;;0.70;0.30;;;;;;;8.22;100.00;100979.31;5196126;28;20083;-76
2024/02/19 03:57:11;;;;;;;0.90;0.50;;;;;;;8.20;100.00;100988.09;5193087;28;20021;-76
2024/02/19 03:59:41;;;;;;;1.77;0.77;;;;;;;8.21;100.00;100995.00;5193612;28;20116;-77
2024/02/19 04:02:12;;;;;;;2.03;0.77;;;;;;;8.21;100.00;100995.00;5210853;22;20136;-76
2024/02/19 04:04:43;;;;;;;1.42;0.70;;;;;;;8.27;100.00;101000.94;5194640;28;20529;-77
2024/02/19 04:07:14;;;;;;;2.58;0.80;;;;;;;8.23;100.00;100996.66;5195876;28;20057;-76
2024/02/19 04:09:44;;;;;;;2.63;0.75;;;;;;;8.23;100.00;101006.25;5195991;28;20120;-76
2024/02/19 04:12:14;;;;;;;3.60;1.10;;;;;;;8.28;100.00;101009.59;5196297;28;20336;-76
2024/02/19 04:14:45;;;;;;;2.88;1.23;;;;;;;8.27;100.00;101006.16;5196108;28;20033;-74
2024/02/19 04:17:15;;;;;;;4.05;1.30;;;;;;;8.30;100.00;101018.25;5196280;28;20037;-76
2024/02/19 04:19:46;;;;;;;4.22;1.70;;;;;;;8.22;100.00;101017.53;5196208;28;20048;-76
2024/02/19 04:22:16;;;;;;;2.65;1.50;;;;;;;8.19;100.00;101023.66;5183876;28;20029;-76
2024/02/19 04:24:47;;;;;;;2.25;1.10;;;;;;;8.27;100.00;101034.81;5195775;28;20479;-76
2024/02/19 04:27:17;;;;;;;3.28;1.35;;;;;;;8.33;100.00;101029.47;5194305;28;20029;-76
2024/02/19 04:29:48;;;;;;;3.38;1.25;;;;;;;8.14;100.00;101024.59;5196566;28;20048;-76
2024/02/19 04:32:18;;;;;;;2.53;0.90;;;;;;;8.13;100.00;101049.78;5195996;28;20379;-76
2024/02/19 04:34:48;;;;;;;1.92;1.10;;;;;;;8.06;100.00;101053.34;5194033;28;20021;-76
2024/02/19 04:37:19;;;;;;;2.35;0.90;;;;;;;8.05;100.00;101056.00;5196204;28;20041;-76
2024/02/19 04:39:49;;;;;;;3.78;0.98;;;;;;;8.05;100.00;101050.81;5194843;28;20036;-76
2024/02/19 04:42:20;;;;;;;1.50;0.80;;;;;;;8.03;100.00;101057.78;5206212;28;20542;-76
2024/02/19 04:44:50;;;;;;;2.65;0.80;;;;;;;8.04;100.00;101065.53;5199753;28;20037;-75
2024/02/19 04:47:21;;;;;;;1.30;0.60;;;;;;;7.96;100.00;101064.84;5199856;28;20241;-77
2024/02/19 04:49:51;;;;;;;4.00;0.55;;;;;;;7.94;100.00;101074.41;5200395;28;20043;-76
2024/02/19 04:52:21;;;;;;;1.58;0.60;;;;;;;7.93;100.00;101079.63;5205392;28;20025;-76
2024/02/19 04:54:51;;;;;;;3.47;0.70;;;;;;;7.93;100.00;101083.09;5199420;28;20026;-76
2024/02/19 04:57:22;;;;;;;2.25;0.75;;;;;;;7.89;100.00;101075.38;5198833;28;20501;-76
2024/02/19 04:59:52;;;;;;;2.60;0.73;;;;;;;7.94;100.00;101100.44;5199312;28;20029;-76
2024/02/19 05:02:22;;;;;;;2.38;0.70;;;;;;;7.94;100.00;101089.16;5199573;28;20552;-76
2024/02/19 05:04:53;;;;;;;1.50;0.60;;;;;;;7.97;100.00;101097.78;5199535;28;20091;-76
2024/02/19 05:07:23;;;;;;;3.67;0.60;;;;;;;7.93;100.00;101109.13;5200290;28;20030;-76
2024/02/19 05:09:53;;;;;;;2.75;0.80;;;;;;;7.83;100.00;101106.69;5191382;28;20025;-76
2024/02/19 05:12:24;;;;;;;4.30;0.90;;;;;;;7.85;100.00;101110.97;5199726;28;20461;-75
2024/02/19 05:14:54;;;;;;;1.48;0.73;;;;;;;7.81;100.00;101106.72;5199463;28;20021;-76
2024/02/19 05:17:24;;;;;;;1.55;0.90;;;;;;;7.75;100.00;101106.81;5199806;28;20107;-76
2024/02/19 05:19:54;;;;;;;2.67;0.70;;;;;;;7.75;100.00;101101.63;5199577;28;20029;-76
2024/02/19 05:22:25;;;;;;;1.05;0.70;;;;;;;7.74;100.00;101115.47;5198559;28;20049;-76
2024/02/19 05:24:55;;;;;;;2.35;0.80;;;;;;;7.79;100.00;101116.28;5199339;28;20056;-76
2024/02/19 05:27:25;;;;;;;2.22;0.82;;;;;;;7.77;100.00;101125.00;5198035;28;20025;-75
2024/02/19 05:29:55;;;;;;;2.30;0.77;;;;;;;7.73;100.00;101121.56;5199260;28;20512;-75
2024/02/19 05:32:26;;;;;;;1.77;0.70;;;;;;;7.76;100.00;101121.56;5199695;28;20029;-76
2024/02/19 05:34:56;;;;;;;3.05;0.60;;;;;;;7.75;100.00;101132.84;5199294;28;20037;-75
2024/02/19 05:37:26;;;;;;;2.38;0.73;;;;;;;7.82;100.00;101120.56;5198311;28;20094;-76
2024/02/19 05:39:56;;;;;;;1.77;0.50;;;;;;;7.77;100.00;101123.25;5198917;28;20033;-76
2024/02/19 05:42:27;;;;;;;2.42;0.52;;;;;;;7.87;100.00;101134.38;5199067;28;20487;-76
2024/02/19 05:44:57;;;;;;;0.90;0.47;;;;;;;7.92;100.00;101133.44;5186295;28;20048;-75
2024/02/19 05:47:28;;;;;;;3.22;0.73;;;;;;;7.88;100.00;101131.75;5198534;28;20032;-75
2024/02/19 05:49:59;;;;;;;0.88;0.50;;;;;;;7.89;100.00;101133.47;5199110;28;20505;-76
2024/02/19 05:52:29;;;;;;;1.40;0.85;;;;;;;7.92;100.00;101143.84;5197243;28;20029;-76
2024/02/19 05:55:02;;;;;;;1.40;0.73;;;;;;;7.91;100.00;101133.44;5199417;28;20025;-76
2024/02/19 05:57:33;;;;;;;2.47;0.80;;;;;;;7.83;100.00;101141.38;5198616;28;20029;-75
2024/02/19 06:00:05;;;;;;;1.23;0.70;;;;;;;7.91;100.00;101139.50;5198513;28;20094;-76
2024/02/19 06:02:35;;;;;;;1.42;0.75;;;;;;;7.90;100.00;101156.00;5197914;28;20554;-75
2024/02/19 06:05:06;;;;;;;2.15;0.85;;;;;;;7.89;100.00;101150.84;5197159;28;20044;-76
2024/02/19 06:07:37;;;;;;;2.80;0.90;;;;;;;7.95;100.00;101162.00;5199376;28;20518;-76
2024/02/19 06:10:08;;;;;;;1.85;0.70;;;;;;;7.94;100.00;101162.91;5198913;28;20033;-76
2024/02/19 06:12:39;;;;;;;1.55;0.63;;;;;;;7.92;100.00;101162.06;5199408;28;20083;-76
2024/02/19 06:15:09;;;;;;;0.95;0.60;;;;;;;7.93;100.00;101171.59;5186111;28;20037;-75
2024/02/19 06:17:39;;;;;;;2.72;0.73;;;;;;;7.96;100.00;101175.88;5198744;28;20036;-76
2024/02/19 06:20:10;;;;;;;1.55;0.77;;;;;;;7.89;100.00;101172.50;5198276;28;20047;-75
2024/02/19 06:22:41;;;;;;;1.65;0.85;;;;;;;7.91;100.00;101175.94;5199144;28;20129;-75
2024/02/19 06:25:11;;;;;;;1.65;0.70;;;;;;;7.89;100.00;101190.72;5198350;28;20067;-75
2024/02/19 06:27:41;;;;;;;2.53;0.60;;;;;;;7.79;100.00;101189.16;5198282;28;20064;-75
2024/02/19 06:30:12;;;;;;;4.63;0.80;;;;;;;7.88;100.00;101189.00;5184846;28;20033;-75
2024/02/19 06:32:42;;;;;;;3.95;0.80;;;;;;;7.82;100.00;101193.41;5196396;28;20112;-75
2024/02/19 06:35:12;;;;;;;1.77;0.90;;;;;;;7.89;100.00;101201.13;5195905;28;20033;-75
2024/02/19 06:37:43;;;;;;;3.45;1.20;;;;;;;7.96;100.00;101201.88;5197442;28;20026;-76
2024/02/19 06:40:13;;;;;;;1.40;0.68;;;;;;;7.92;100.00;101208.91;5183576;28;20292;-76
2024/02/19 06:42:43;;;;;;;3.47;1.13;;;;;;;7.98;100.00;101211.41;5197497;28;20032;-76
2024/02/19 06:45:14;;;;;;;2.10;0.90;;;;;;;7.96;100.00;101218.38;5197098;28;20025;-76
2024/02/19 06:47:44;;;;;;;1.60;0.93;;;;;;;7.96;100.00;101223.59;5198329;28;20313;-76
2024/02/19 06:50:14;;;;;;;1.60;0.80;;;;;;;8.00;100.00;101225.25;5198096;28;21037;-75
2024/02/19 06:52:47;;;;;;;1.85;0.90;;;;;;;7.89;100.00;101227.13;5198302;28;20519;-75
2024/02/19 06:55:18;;;;;;;1.55;0.90;;;;;;;7.96;100.00;101228.78;5197046;28;20053;-75
2024/02/19 06:57:48;;;;;;;3.65;1.17;;;;;;;8.04;100.00;101239.94;5197860;28;20053;-74
2024/02/19 07:00:19;;;;;;;2.58;1.30;;;;;;;8.01;100.00;101237.38;5180187;28;20045;-76
2024/02/19 07:02:49;;;;;;;3.63;1.30;;;;;;;7.89;100.00;101242.75;5191367;28;20042;-76
2024/02/19 07:05:20;;;;;;;4.35;1.92;;;;;;;7.89;100.00;101252.31;5196284;28;20044;-74
2024/02/19 07:07:50;;;;;;;2.40;1.70;;;;;;;8.08;100.00;101254.63;5182552;28;20091;-76
2024/02/19 07:10:20;;;;;;;5.03;1.60;;;;;;;7.94;100.00;101263.50;5195522;28;20029;-76
2024/02/19 07:12:51;;;;;;;4.32;1.90;;;;;;;8.07;100.00;101265.91;5197077;28;20479;-76
2024/02/19 07:15:21;;;;;;;3.20;1.92;;;;;;;8.05;100.00;101262.47;5196341;28;20029;-76
2024/02/19 07:17:51;;;;;;;3.03;1.80;;;;;;;8.03;100.00;101268.59;5196930;28;20024;-75
2024/02/19 07:20:22;;;;;;;3.22;1.80;;;;;;;8.17;100.00;101266.63;5185150;28;20442;-75
2024/02/19 07:22:52;;;;;;;6.53;3.28;;;;;;;8.14;100.00;101277.09;5197453;28;20029;-76
2024/02/19 07:25:22;;;;;;;4.32;2.17;;;;;;;8.19;100.00;101286.59;5197660;28;20033;-76
2024/02/19 07:27:52;;;;;;;3.80;2.10;;;;;;;8.17;100.00;101277.94;5197376;28;20448;-75
2024/02/19 07:30:23;;;;;;;3.60;2.15;;;;;;;8.25;100.00;101283.91;5196623;28;20499;-75
2024/02/19 07:32:53;;;;;;;3.47;2.15;;;;;;;8.27;100.00;101287.38;5197345;28;20487;-76
2024/02/19 07:35:24;;;;;;;4.07;2.20;;;;;;;8.38;100.00;101285.44;5197764;28;20117;-76
2024/02/19 07:37:54;;;;;;;3.80;2.15;;;;;;;8.37;100.00;101294.16;5196316;28;20966;-76
2024/02/19 07:40:24;;;;;;;3.47;2.05;;;;;;;8.29;100.00;101297.75;5197385;28;20029;-76
2024/02/19 07:42:55;;;;;;;3.60;2.45;;;;;;;8.41;100.00;101300.19;5183130;28;20025;-76
2024/02/19 07:45:25;;;;;;;2.55;1.73;;;;;;;8.42;100.00;101304.50;5197432;28;20021;-76
2024/02/19 07:47:55;;;;;;;2.75;1.83;;;;;;;8.50;100.00;101306.09;5196166;28;20103;-75
2024/02/19 07:50:25;;;;;;;4.00;1.77;;;;;;;8.40;100.00;101320.13;5195998;28;20044;-76
2024/02/19 07:52:56;;;;;;;4.82;2.10;;;;;;;8.47;100.00;101316.56;5197313;28;20463;-75
2024/02/19 07:55:26;;;;;;;3.58;1.90;;;;;;;8.46;100.00;101320.06;5197598;28;20040;-76
2024/02/19 07:57:56;;;;;;;3.75;2.00;;;;;;;8.51;100.00;101327.78;5195898;28;20108;-76
2024/02/19 08:00:27;;;;;;;6.20;2.30;;;;;;;8.53;100.00;101321.69;5197960;28;20277;-75
2024/02/19 08:02:57;;;;;;;4.05;2.15;;;;;;;8.64;100.00;101330.19;5196940;28;20077;-76
2024/02/19 08:05:27;;;;;;;4.22;2.05;;;;;;;8.63;100.00;101331.09;5183724;28;20033;-76
2024/02/19 08:07:57;;;;;;;3.38;2.00;;;;;;;8.71;100.00;101328.38;5197096;28;20075;-75
2024/02/19 08:10:28;;;;;;;5.38;2.03;;;;;;;8.69;100.00;101328.38;5198710;28;20037;-76
2024/02/19 08:12:58;;;;;;;3.67;1.80;;;;;;;8.77;100.00;101336.06;5196836;28;20028;-76
2024/02/19 08:15:28;;;;;;;3.28;1.40;;;;;;;8.67;100.00;101345.78;5194610;28;20044;-76
2024/02/19 08:17:59;;;;;;;3.28;1.30;;;;;;;8.69;100.00;101338.78;5197260;28;20047;-76
2024/02/19 08:20:30;;;;;;;1.00;0.85;;;;;;;8.76;100.00;101340.41;5197912;28;20125;-75
2024/02/19 08:23:00;;;;;;;2.25;1.00;;;;;;;8.82;100.00;101342.94;5197530;28;20482;-76
2024/02/19 08:25:31;;;;;;;2.35;1.30;;;;;;;8.71;100.00;101337.03;5197924;28;20029;-76
2024/02/19 08:28:01;;;;;;;1.20;0.88;;;;;;;8.71;100.00;101339.63;5193266;28;20371;-76
2024/02/19 08:30:32;;;;;;;1.20;1.00;;;;;;;8.66;100.00;101349.28;5195519;28;20112;-76
2024/02/19 08:33:02;;;;;;;1.48;1.10;;;;;;;8.77;100.00;101346.50;5195677;28;20071;-76
2024/02/19 08:35:32;;;;;;;1.65;0.90;;;;;;;8.78;100.00;101343.88;5197822;28;20099;-76
2024/02/19 08:38:04;;;;;;;1.88;0.90;;;;;;;8.84;100.00;101345.50;5197031;28;20055;-76
2024/02/19 08:40:34;;;;;;;2.63;1.27;;;;;;;8.93;100.00;101351.41;5197408;28;20037;-76
2024/02/19 08:43:06;;;;;;;1.42;0.85;;;;;;;8.92;100.00;101354.91;5197108;28;20388;-76
2024/02/19 08:45:39;;;;;;;2.50;1.02;;;;;;;8.88;100.00;101349.81;5193183;28;20083;-76
2024/02/19 08:48:10;;;;;;;2.30;1.17;;;;;;;8.91;100.00;101344.53;5185400;28;20037;-76
2024/02/19 08:50:41;;;;;;;2.65;1.02;;;;;;;8.86;100.00;101355.03;5198334;28;20541;-76
2024/02/19 08:53:12;;;;;;;2.20;1.27;;;;;;;8.81;100.00;101354.25;5195193;28;20075;-76
2024/02/19 08:55:42;;;;;;;1.90;1.10;;;;;;;8.85;100.00;101353.31;5180510;28;20018;-76
2024/02/19 08:58:12;;;;;;;1.50;0.70;;;;;;;8.82;100.00;101358.56;5196662;28;20064;-75
2024/02/19 09:00:43;;;;;;;2.40;0.77;;;;;;;8.88;100.00;101357.63;5198300;28;20402;-76
2024/02/19 09:03:13;;;;;;;1.40;0.80;;;;;;;8.96;100.00;101353.13;5196803;28;20029;-76
2024/02/19 09:05:43;;;;;;;1.40;0.90;;;;;;;8.91;100.00;101350.59;5197709;28;20091;-76
2024/02/19 09:08:14;;;;;;;1.13;0.70;;;;;;;9.00;100.00;101354.78;5196524;28;20076;-76
2024/02/19 09:10:44;;;;;;;3.05;1.10;;;;;;;9.09;100.00;101347.66;5197653;28;20033;-76
2024/02/19 09:13:14;;;;;;;2.50;1.25;;;;;;;8.93;100.00;101346.22;5187326;28;20060;-77
2024/02/19 09:15:45;;;;;;;4.63;2.72;;;;;;;9.14;100.00;101346.72;5197502;28;20037;-76
2024/02/19 09:18:16;;;;;;;1.80;1.23;;;;;;;9.09;100.00;101350.28;5196617;28;20399;-76
2024/02/19 09:20:46;;;;;;;2.60;1.58;;;;;;;9.10;100.00;101346.78;5197523;28;20075;-76
2024/02/19 09:23:16;;;;;;;5.38;2.08;;;;;;;9.08;100.00;101351.16;5192475;28;20748;-76
2024/02/19 09:25:47;;;;;;;5.28;1.80;;;;;;;9.13;100.00;101363.25;5193567;28;20071;-75
2024/02/19 09:28:17;;;;;;;4.28;1.77;;;;;;;9.15;100.00;101355.41;5187394;28;20057;-76
2024/02/19 09:30:47;;;;;;;6.85;1.55;;;;;;;9.05;100.00;101358.22;5201650;28;20037;-76
2024/02/19 09:33:17;;;;;;;4.00;1.60;;;;;;;9.23;100.00;101354.38;5200435;28;20041;-76
2024/02/19 09:35:48;;;;;;;7.95;2.17;;;;;;;9.22;100.00;101357.00;5199953;28;20052;-76
2024/02/19 09:38:18;;;;;;;2.92;1.10;;;;;;;9.15;100.00;101358.84;5196891;28;20025;-76
2024/02/19 09:40:49;;;;;;;2.88;1.40;;;;;;;9.17;100.00;101357.09;5198905;28;20029;-76
2024/02/19 09:43:20;;;;;;;2.55;1.10;;;;;;;9.17;100.00;101358.84;5196886;28;20037;-76
2024/02/19 09:45:50;;;;;;;4.28;2.53;;;;;;;9.26;100.00;101353.44;5197741;28;20468;-77
2024/02/19 09:48:21;;;;;;;1.40;0.90;;;;;;;9.25;100.00;101364.78;5197529;28;20057;-77
2024/02/19 09:50:53;;;;;;;3.20;1.02;;;;;;;9.22;100.00;101354.41;5185783;28;20483;-76
2024/02/19 09:53:27;;;;;;;2.63;1.20;;;;;;;9.09;100.00;101365.91;5198919;28;20047;-75
2024/02/19 09:55:58;;;;;;;4.78;2.00;;;;;;;9.23;100.00;101359.59;5199824;28;20045;-76
2024/02/19 09:58:28;;;;;;;9.02;3.95;;;;;;;9.23;100.00;101363.94;5198548;28;20087;-76
2024/02/19 10:00:59;;;;;;;4.35;2.22;;;;;;;9.23;100.00;101366.56;5195660;28;20039;-77
2024/02/19 10:03:29;;;;;;;5.63;2.72;;;;;;;9.22;100.00;101375.25;5228232;22;20131;-77
2024/02/19 10:06:02;;;;;;;4.63;1.92;;;;;;;9.28;100.00;101378.63;5197623;28;20111;-74
2024/02/19 10:08:32;;;;;;;2.90;1.50;;;;;;;9.16;100.00;101375.38;5187235;28;20036;-77
2024/02/19 10:11:10;;;;;;;2.90;1.42;;;;;;;9.19;100.00;101375.31;5199806;28;20025;-76
2024/02/19 10:13:41;;;;;;;4.60;1.60;;;;;;;9.20;100.00;101367.50;5197035;28;20430;-76
2024/02/19 10:16:11;;;;;;;7.60;2.42;;;;;;;9.38;100.00;101374.09;5197136;28;20104;-76
2024/02/19 10:18:43;;;;;;;2.58;1.70;;;;;;;9.49;100.00;101373.03;5186320;28;20398;-76
2024/02/19 10:21:13;;;;;;;4.15;1.25;;;;;;;9.61;100.00;101367.59;5183595;28;20080;-76
2024/02/19 10:23:46;;;;;;;3.03;1.52;;;;;;;9.55;100.00;101370.31;5199519;28;20064;-75
2024/02/19 10:26:16;;;;;;;5.43;2.38;;;;;;;9.64;100.00;101377.13;5197291;28;20025;-75
2024/02/19 10:28:47;;;;;;;5.80;1.77;;;;;;;9.51;100.00;101371.25;5187454;28;20076;-76
2024/02/19 10:31:19;;;;;;;3.30;1.38;;;;;;;9.62;100.00;101371.91;5198087;28;20037;-76
2024/02/19 10:33:50;;;;;;;6.85;3.95;;;;;;;9.62;100.00;101373.69;5198735;28;20036;-76
2024/02/19 10:36:22;;;;;;;9.50;4.35;;;;;;;9.68;100.00;101369.16;5197920;28;20037;-76
2024/02/19 10:38:52;;;;;;;9.82;3.70;;;;;;;9.75;100.00;101380.34;5181873;28;20285;-75
2024/02/19 10:41:25;;;;;;;6.90;2.55;;;;;;;9.72;100.00;101377.81;5198334;28;20041;-75
2024/02/19 10:43:56;;;;;;;6.25;2.33;;;;;;;9.74;100.00;101379.50;5198705;28;20479;-75
2024/02/19 10:46:26;;;;;;;4.55;1.40;;;;;;;9.77;100.00;101389.88;5180934;28;20036;-77
2024/02/19 10:48:57;;;;;;;4.00;2.05;;;;;;;9.81;100.00;101385.47;5180235;28;20104;-76
2024/02/19 10:51:28;;;;;;;7.43;2.90;;;;;;;9.77;100.00;101389.03;5197939;28;20033;-75
2024/02/19 10:54:03;;;;;;;10.48;3.92;;;;;;;9.86;100.00;101394.91;5183607;28;20036;-76
2024/02/19 10:56:38;;;;;;;9.20;5.18;;;;;;;9.88;100.00;101381.84;5197135;28;20032;-76
2024/02/19 10:59:09;;;;;;;10.40;2.30;;;;;;;9.93;100.00;101383.47;5196484;28;20036;-76
2024/02/19 11:01:44;;;;;;;7.03;1.63;;;;;;;9.89;100.00;101392.28;5197367;28;20048;-76
2024/02/19 11:04:22;;;;;;;11.82;5.25;;;;;;;9.90;100.00;101385.28;5196101;28;20383;-76
2024/02/19 11:06:54;;;;;;;9.05;3.03;;;;;;;10.08;100.00;101384.94;5194957;28;20108;-76
2024/02/19 11:09:33;;;;;;;2.75;1.60;;;;;;;10.23;100.00;101379.41;5181519;28;20030;-75
2024/02/19 11:12:05;;;;;;;5.05;2.20;;;;;;;10.46;100.00;101370.19;5197036;28;20034;-76
2024/02/19 11:14:36;;;;;;;6.93;1.80;;;;;;;10.69;100.00;101364.44;5196136;28;20480;-76
2024/02/19 11:17:08;;;;;;;5.05;2.05;;;;;;;10.68;100.00;101362.72;5197346;28;20039;-76
2024/02/19 11:19:39;;;;;;;4.35;1.42;;;;;;;10.83;100.00;101357.13;5197804;28;20036;-76
2024/02/19 11:22:11;;;;;;;2.40;1.08;;;;;;;10.85;100.00;101363.16;5196207;28;20452;-76
2024/02/19 11:24:41;;;;;;;5.55;1.50;;;;;;;10.75;100.00;101364.28;5197665;28;20547;-76
2024/02/19 11:27:12;;;;;;;4.32;1.90;;;;;;;10.89;100.00;101360.41;5196750;28;20124;-74
2024/02/19 11:29:42;;;;;;;8.35;1.95;;;;;;;10.92;100.00;101359.50;5196478;28;20048;-76
2024/02/19 11:32:18;;;;;;;6.45;1.95;;;;;;;10.94;100.00;101366.41;5193213;28;20033;-76
2024/02/19 11:34:49;;;;;;;5.22;1.48;;;;;;;10.76;100.00;101363.38;5182504;28;20483;-76
2024/02/19 11:37:20;;;;;;;6.43;1.60;;;;;;;10.69;100.00;101364.44;5188576;28;20033;-76
2024/02/19 11:39:50;;;;;;;4.65;1.63;;;;;;;10.86;100.00;101357.88;5198173;28;20025;-76